SBOSBO SVG / ENZV
Speedbird OnlineSpeedbird Online SVG / ENZV

Stavanger Airport Sola
13:15 12.8°C

Location Stavanger, Norway
Latitude: 58.876701354
Longitude: 5.6377801895
Local Time 13:15 on 17 Jun 2024
UTC +2 hours (Europe/Oslo)
Currency £1 equals NOK 13.55
METAR ENZV 171050Z 18016G27KT 9000 3500S RA BKN037 13/10 Q1006 TEMPO 4000 TSRA BKN014CB BECMG 15012KT
TAF TAF AMD ENZV 170818Z 1708/1806 16008KT 9999 -SHRA FEW025 BKN040 TEMPO 1709/1806 SHRA BKN008 SCT020CB TEMPO 1710/1716 17015G25KT PROB30 TEMPO 1710/1712 TS
Weather As Of 17 Jun 2024 13:15
Description Moderate rain
Wind 30 km/h from South (180°)
Cloud Cover 75%
Precipitation Rain: none, Snow: none
Sunrise 04:25
Sunset 22:51
NOTAM 1 active NOTAM
Web Airport Website | Wikipedia
Codes IATA: SVG
ICAO: ENZV
Altitude 9 Meter / 29 Feet
Distance 890 KM / 553 Miles
from London.
Runways
RunwayLength (m)Surface
112449Asphalt
182856Asphalt
292449Asphalt
362856Asphalt
Radio
TypeDescriptionFrequency
APPSola Approach119.6
ARRARR118.5
ATISATIS126
GNDSola Ground121.75
TWRSola Tower118.35
Live ATC



Support Speedbird Online

© 2017-2024 Speedbird Online